Armstrong, Illinois
Current Conditions -  °F | °C
As of 6:50 PM on Wednesday 22 Oct 2014 (Local Time) from KTIP Reporting Station
Clear Clear  
Wind Chill: 10°   Ceiling: Unl
Heat Index: 10°   Visibility: 7mi
Dew Point:   Wind: 5mph
Humidity: 58%   Direction: 90°E
Pressure: 30.25"   Gusts: NA
Location:  40.31°N, 87.88°W
Report Text: KTIP 222350Z AUTO 09004KT 7SM CLR 10/02 A3025 RMK AO2 T01010021 10160 20100
Loading
Personal Weather Stations






























Interactive Weather Map
Tropical Storm Tracking
New forecast layout! Learn more

10-Day Weather Forecast

Advertisements
Track Severe Weather on mobile